Time;durP1;ratioP1;P1;durP2;ratioP2;P2;SDS_P1;SDS_P2;PMS_P1;PMS_P2;Temp;Humidity;BMP_temperature;BMP_pressure;BME280_temperature;BME280_humidity;BME280_pressure;Samples;Min_cycle;Max_cycle;Signal;HPM_P1;HPM_P2
2023/10/13 00:00:36;;;;;;;;;;;20.90;65.60;;;;;;6317569;28;19935;-66
2023/10/13 00:03:36;;;;;;;;;;;20.90;65.60;;;;;;6317853;28;19952;-67
2023/10/13 00:06:37;;;;;;;;;;;20.90;65.40;;;;;;6308677;28;19923;-66
2023/10/13 00:09:38;;;;;;;;;;;20.90;65.20;;;;;;6317895;28;20390;-66
2023/10/13 00:12:38;;;;;;;;;;;20.90;65.30;;;;;;6309156;28;19996;-66
2023/10/13 00:15:57;;;;;;;;;;;20.90;66.10;;;;;;6318047;28;20342;-66
2023/10/13 00:18:57;;;;;;;;;;;20.90;65.30;;;;;;6311979;28;19938;-66
2023/10/13 00:22:08;;;;;;;;;;;20.90;65.40;;;;;;6317143;28;20575;-67
2023/10/13 00:25:18;;;;;;;;;;;20.90;65.70;;;;;;6309556;28;19939;-67
2023/10/13 00:28:26;;;;;;;;;;;20.90;65.30;;;;;;6317192;28;19915;-66
2023/10/13 00:31:33;;;;;;;;;;;20.90;65.70;;;;;;6303603;28;19922;-66
2023/10/13 00:34:37;;;;;;;;;;;20.90;65.20;;;;;;6317552;28;20281;-67
2023/10/13 00:37:44;;;;;;;;;;;20.90;65.50;;;;;;6317398;28;19970;-66
2023/10/13 00:40:51;;;;;;;;;;;20.90;65.70;;;;;;6317627;28;20031;-67
2023/10/13 00:44:04;;;;;;;;;;;20.90;65.80;;;;;;6321990;28;19908;-66
2023/10/13 00:47:07;;;;;;;;;;;20.90;65.30;;;;;;6322152;28;19912;-67
2023/10/13 00:50:11;;;;;;;;;;;20.90;66.50;;;;;;6321954;28;19947;-66
2023/10/13 00:53:12;;;;;;;;;;;20.90;66.40;;;;;;6317745;28;20259;-67
2023/10/13 00:56:19;;;;;;;;;;;20.90;65.30;;;;;;6322357;28;19915;-66
2023/10/13 00:59:25;;;;;;;;;;;20.90;66.00;;;;;;6313868;28;20473;-67
2023/10/13 01:02:56;;;;;;;;;;;20.90;65.60;;;;;;6321919;28;19983;-66
2023/10/13 01:05:53;;;;;;;;;;;20.90;66.20;;;;;;6309398;28;19919;-67
2023/10/13 01:09:18;;;;;;;;;;;20.90;65.50;;;;;;6313246;28;19908;-66
2023/10/13 01:12:19;;;;;;;;;;;20.90;65.30;;;;;;6313492;28;19908;-66
2023/10/13 01:15:22;;;;;;;;;;;20.90;66.10;;;;;;6320178;28;19931;-66
2023/10/13 01:18:23;;;;;;;;;;;20.90;65.80;;;;;;6321023;28;19912;-67
2023/10/13 01:21:27;;;;;;;;;;;20.90;65.30;;;;;;6319381;28;19981;-66
2023/10/13 01:24:31;;;;;;;;;;;20.90;65.60;;;;;;6318377;28;19908;-67
2023/10/13 01:27:38;;;;;;;;;;;20.90;65.90;;;;;;6304672;28;19912;-67
2023/10/13 01:30:38;;;;;;;;;;;20.90;65.70;;;;;;6318120;28;19916;-67
2023/10/13 01:33:39;;;;;;;;;;;20.90;65.40;;;;;;6311116;28;20436;-66
2023/10/13 01:36:40;;;;;;;;;;;20.90;65.40;;;;;;6314866;28;19909;-66
2023/10/13 01:39:41;;;;;;;;;;;20.90;65.60;;;;;;6315609;28;20377;-66
2023/10/13 01:42:42;;;;;;;;;;;20.90;65.30;;;;;;6312660;28;19908;-66
2023/10/13 01:45:47;;;;;;;;;;;20.90;65.40;;;;;;6318259;28;19909;-66
2023/10/13 01:48:47;;;;;;;;;;;20.90;65.90;;;;;;6308118;28;19908;-66
2023/10/13 01:51:48;;;;;;;;;;;20.90;65.40;;;;;;6316641;28;20374;-67
2023/10/13 01:54:51;;;;;;;;;;;20.90;65.40;;;;;;6320668;28;19908;-66
2023/10/13 01:57:54;;;;;;;;;;;20.90;65.90;;;;;;6320592;28;20733;-67
2023/10/13 02:00:56;;;;;;;;;;;20.90;65.50;;;;;;6317032;28;20302;-66
2023/10/13 02:04:03;;;;;;;;;;;20.90;65.60;;;;;;6315177;28;19912;-66
2023/10/13 02:07:04;;;;;;;;;;;20.90;65.80;;;;;;6319991;28;19909;-67
2023/10/13 02:10:05;;;;;;;;;;;20.90;65.60;;;;;;6305651;28;19916;-67
2023/10/13 02:13:15;;;;;;;;;;;20.90;65.60;;;;;;6308974;28;20402;-66
2023/10/13 02:16:20;;;;;;;;;;;20.90;65.60;;;;;;6319347;28;20233;-66
2023/10/13 02:19:21;;;;;;;;;;;20.90;65.50;;;;;;6311915;28;19915;-65
2023/10/13 02:22:31;;;;;;;;;;;20.90;65.80;;;;;;6312096;28;19930;-66
2023/10/13 02:25:45;;;;;;;;;;;20.90;66.60;;;;;;6311691;28;19935;-66
2023/10/13 02:28:51;;;;;;;;;;;20.80;65.60;;;;;;6311977;28;19984;-67
2023/10/13 02:31:55;;;;;;;;;;;20.80;66.60;;;;;;6308510;28;19912;-65
2023/10/13 02:35:05;;;;;;;;;;;20.80;66.80;;;;;;6311525;28;19908;-68
2023/10/13 02:38:10;;;;;;;;;;;20.80;66.50;;;;;;6319337;28;19908;-69
2023/10/13 02:41:27;;;;;;;;;;;20.90;65.50;;;;;;6316941;28;20012;-66
2023/10/13 02:44:31;;;;;;;;;;;20.90;65.80;;;;;;6312843;28;20359;-67
2023/10/13 02:47:31;;;;;;;;;;;20.90;65.40;;;;;;6311128;28;20294;-67
2023/10/13 02:50:33;;;;;;;;;;;20.90;65.90;;;;;;6317650;28;19955;-66
2023/10/13 02:53:33;;;;;;;;;;;20.80;65.70;;;;;;6319159;28;20384;-67
2023/10/13 02:56:34;;;;;;;;;;;20.80;66.40;;;;;;6317607;28;19908;-66
2023/10/13 02:59:34;;;;;;;;;;;20.80;66.80;;;;;;6314352;28;19915;-67
2023/10/13 03:02:41;;;;;;;;;;;20.80;66.00;;;;;;6310149;28;19908;-67
2023/10/13 03:05:42;;;;;;;;;;;20.80;65.70;;;;;;6319300;28;19915;-67
2023/10/13 03:08:43;;;;;;;;;;;20.80;65.60;;;;;;6318881;28;19959;-67
2023/10/13 03:11:50;;;;;;;;;;;20.80;65.50;;;;;;6314874;28;20007;-66
2023/10/13 03:15:10;;;;;;;;;;;20.80;66.60;;;;;;6319466;28;19908;-67
2023/10/13 03:18:18;;;;;;;;;;;20.80;65.80;;;;;;6310362;28;19909;-67
2023/10/13 03:21:28;;;;;;;;;;;20.90;65.50;;;;;;6310447;28;19969;-70
2023/10/13 03:24:34;;;;;;;;;;;20.90;66.30;;;;;;6318499;28;19915;-67
2023/10/13 03:30:54;;;;;;;;;;;20.80;65.80;;;;;;6302320;28;19947;-67
2023/10/13 03:33:59;;;;;;;;;;;20.80;66.50;;;;;;6318810;28;19915;-68
2023/10/13 03:37:06;;;;;;;;;;;20.80;66.00;;;;;;6310285;28;19953;-65
2023/10/13 03:40:56;;;;;;;;;;;20.80;66.70;;;;;;6311205;28;19952;-67
2023/10/13 03:43:45;;;;;;;;;;;20.80;66.80;;;;;;6312089;28;19915;-67
2023/10/13 03:46:47;;;;;;;;;;;20.80;66.40;;;;;;6314829;28;19912;-66
2023/10/13 03:49:51;;;;;;;;;;;20.80;66.80;;;;;;6314186;28;20302;-66
2023/10/13 03:52:54;;;;;;;;;;;20.80;66.80;;;;;;6318819;28;19915;-67
2023/10/13 03:56:25;;;;;;;;;;;20.80;66.20;;;;;;6318354;28;19908;-66
2023/10/13 04:06:07;;;;;;;;;;;20.80;66.60;;;;;;6315225;28;19908;-68
2023/10/13 04:19:22;;;;;;;;;;;20.80;66.80;;;;;;6315574;28;20270;-68
2023/10/13 04:22:54;;;;;;;;;;;20.80;66.20;;;;;;6314169;28;19908;-66
2023/10/13 04:28:53;;;;;;;;;;;20.80;66.80;;;;;;6311209;28;19912;-65
2023/10/13 04:32:00;;;;;;;;;;;20.80;66.90;;;;;;6316066;28;19908;-65
2023/10/13 04:38:20;;;;;;;;;;;20.80;66.40;;;;;;6322865;28;19920;-68
2023/10/13 04:41:23;;;;;;;;;;;20.80;66.80;;;;;;6313994;28;19927;-68
2023/10/13 04:47:41;;;;;;;;;;;20.80;65.70;;;;;;6314151;28;19912;-69
2023/10/13 04:50:45;;;;;;;;;;;20.80;66.60;;;;;;6316749;28;20530;-69
2023/10/13 04:54:10;;;;;;;;;;;20.80;66.40;;;;;;6314013;28;20286;-69
2023/10/13 04:57:34;;;;;;;;;;;20.80;66.70;;;;;;6319158;28;19908;-69
2023/10/13 05:50:13;;;;;;;;;;;20.80;66.80;;;;;;6320986;28;20426;-69
2023/10/13 06:29:30;;;;;;;;;;;20.80;66.70;;;;;;6315154;28;20424;-65
2023/10/13 06:32:32;;;;;;;;;;;20.80;66.50;;;;;;6311502;28;19908;-65
2023/10/13 06:35:34;;;;;;;;;;;20.80;66.60;;;;;;6313586;28;20030;-66
2023/10/13 06:38:38;;;;;;;;;;;20.80;66.00;;;;;;6300622;28;19966;-66
2023/10/13 06:41:40;;;;;;;;;;;20.80;66.60;;;;;;6321964;28;19951;-65
2023/10/13 06:44:45;;;;;;;;;;;20.80;66.10;;;;;;6312830;28;19915;-65
2023/10/13 06:47:46;;;;;;;;;;;20.80;66.10;;;;;;6318872;28;20367;-67
2023/10/13 06:50:52;;;;;;;;;;;20.80;65.60;;;;;;6317259;28;19919;-68
2023/10/13 06:53:56;;;;;;;;;;;20.80;66.00;;;;;;6313522;28;19908;-68
2023/10/13 06:56:57;;;;;;;;;;;20.80;66.70;;;;;;6312628;28;19916;-67
2023/10/13 06:59:58;;;;;;;;;;;20.80;66.50;;;;;;6329607;28;19912;-67
2023/10/13 07:03:32;;;;;;;;;;;20.80;66.80;;;;;;6319172;28;19923;-68
2023/10/13 07:06:26;;;;;;;;;;;20.80;66.50;;;;;;6310519;28;20590;-68
2023/10/13 07:12:37;;;;;;;;;;;20.90;65.80;;;;;;6319893;28;19908;-68
2023/10/13 07:15:44;;;;;;;;;;;20.90;65.70;;;;;;6319837;28;19918;-68
2023/10/13 07:18:52;;;;;;;;;;;20.90;66.40;;;;;;6314971;28;20749;-68
2023/10/13 07:21:59;;;;;;;;;;;20.90;66.50;;;;;;6320586;28;19912;-69
2023/10/13 07:24:59;;;;;;;;;;;20.90;66.20;;;;;;6322728;28;20019;-68
2023/10/13 07:28:00;;;;;;;;;;;20.90;66.10;;;;;;6322386;28;19911;-68
2023/10/13 07:34:10;;;;;;;;;;;20.90;66.10;;;;;;6319607;28;20454;-69
2023/10/13 07:37:16;;;;;;;;;;;20.90;66.50;;;;;;6319514;28;19916;-67
2023/10/13 07:40:39;;;;;;;;;;;20.80;66.00;;;;;;6317637;28;19924;-68
2023/10/13 07:43:40;;;;;;;;;;;20.90;66.90;;;;;;6314796;28;20015;-69
2023/10/13 07:46:40;;;;;;;;;;;20.90;66.90;;;;;;6316572;28;19908;-68
2023/10/13 07:49:41;;;;;;;;;;;20.90;66.60;;;;;;6319258;28;20003;-68
2023/10/13 07:52:58;;;;;;;;;;;20.90;66.00;;;;;;6329026;28;19907;-69
2023/10/13 07:56:03;;;;;;;;;;;20.90;66.80;;;;;;6325511;28;19923;-69
2023/10/13 07:59:06;;;;;;;;;;;20.90;65.90;;;;;;6317965;28;19909;-70
2023/10/13 08:02:12;;;;;;;;;;;20.90;65.80;;;;;;6317475;28;20027;-70
2023/10/13 08:05:16;;;;;;;;;;;20.90;66.80;;;;;;6316939;28;19934;-70
2023/10/13 08:08:17;;;;;;;;;;;20.90;66.90;;;;;;6323776;28;19912;-70
2023/10/13 08:14:28;;;;;;;;;;;20.90;66.90;;;;;;6316536;28;19909;-70
2023/10/13 08:17:31;;;;;;;;;;;20.80;66.90;;;;;;6322314;28;19912;-68
2023/10/13 08:20:38;;;;;;;;;;;20.80;66.80;;;;;;6307078;28;19912;-70
2023/10/13 08:26:57;;;;;;;;;;;20.90;66.90;;;;;;6300551;28;19916;-70
2023/10/13 08:33:04;;;;;;;;;;;20.90;66.90;;;;;;6323621;28;19942;-69
2023/10/13 08:36:33;;;;;;;;;;;20.90;67.00;;;;;;6317982;28;19953;-70
2023/10/13 08:43:08;;;;;;;;;;;20.90;67.00;;;;;;6313966;28;20295;-69
2023/10/13 08:46:09;;;;;;;;;;;20.90;66.90;;;;;;6318210;28;19908;-69
2023/10/13 08:49:17;;;;;;;;;;;20.90;67.00;;;;;;6302301;28;19983;-67
2023/10/13 08:55:49;;;;;;;;;;;20.90;66.90;;;;;;6317618;28;19912;-69
2023/10/13 09:02:15;;;;;;;;;;;20.90;67.00;;;;;;6323823;28;19920;-67
2023/10/13 09:09:07;;;;;;;;;;;20.90;66.50;;;;;;6322073;28;19955;-68
2023/10/13 09:12:17;;;;;;;;;;;20.80;66.90;;;;;;6330177;28;19919;-67
2023/10/13 09:15:59;;;;;;;;;;;20.80;66.80;;;;;;6322383;28;19916;-64
2023/10/13 09:18:49;;;;;;;;;;;20.90;66.90;;;;;;6322572;28;20416;-66
2023/10/13 09:21:54;;;;;;;;;;;20.90;66.90;;;;;;6322876;28;19937;-65
2023/10/13 09:24:58;;;;;;;;;;;20.90;66.90;;;;;;6324369;28;20386;-64
2023/10/13 09:28:00;;;;;;;;;;;20.90;66.90;;;;;;6327261;28;21401;-65
2023/10/13 09:31:00;;;;;;;;;;;20.90;67.00;;;;;;6321971;28;19908;-64
2023/10/13 09:34:02;;;;;;;;;;;20.80;66.90;;;;;;6318572;28;19912;-63
2023/10/13 09:37:03;;;;;;;;;;;20.90;67.10;;;;;;6322860;28;19961;-65
2023/10/13 09:40:22;;;;;;;;;;;20.90;67.00;;;;;;6322759;28;19942;-64
2023/10/13 09:43:27;;;;;;;;;;;20.90;67.10;;;;;;6321135;28;19915;-65
2023/10/13 09:46:30;;;;;;;;;;;20.90;67.20;;;;;;6322215;28;19991;-65
2023/10/13 09:49:44;;;;;;;;;;;20.90;67.00;;;;;;6326552;28;19912;-66
2023/10/13 09:52:45;;;;;;;;;;;20.90;67.00;;;;;;6325585;28;19939;-68
2023/10/13 09:55:48;;;;;;;;;;;20.90;67.10;;;;;;6321841;28;19977;-68
2023/10/13 09:58:57;;;;;;;;;;;20.90;67.10;;;;;;6321700;28;19923;-68
2023/10/13 10:01:58;;;;;;;;;;;20.90;67.10;;;;;;6317096;28;19916;-68
2023/10/13 10:05:21;;;;;;;;;;;20.90;67.20;;;;;;6319323;28;19920;-68
2023/10/13 10:08:32;;;;;;;;;;;20.90;67.20;;;;;;6318780;28;20480;-68
2023/10/13 10:11:56;;;;;;;;;;;20.90;67.20;;;;;;6320802;28;19908;-66
2023/10/13 10:15:20;;;;;;;;;;;20.90;67.00;;;;;;6320251;28;19951;-68
2023/10/13 10:18:30;;;;;;;;;;;20.90;67.00;;;;;;6319020;28;20022;-67
2023/10/13 10:21:35;;;;;;;;;;;20.90;67.50;;;;;;6325788;28;19996;-69
2023/10/13 10:24:36;;;;;;;;;;;21.00;67.20;;;;;;6318948;28;20371;-67
2023/10/13 10:27:37;;;;;;;;;;;21.00;67.30;;;;;;6319483;28;20061;-68
2023/10/13 10:30:41;;;;;;;;;;;21.00;67.60;;;;;;6320209;28;19908;-67
2023/10/13 10:33:43;;;;;;;;;;;21.00;67.30;;;;;;6326393;28;19912;-68
2023/10/13 10:36:47;;;;;;;;;;;21.10;67.30;;;;;;6320244;28;19916;-69
2023/10/13 10:39:49;;;;;;;;;;;21.10;67.10;;;;;;6328911;28;19980;-68
2023/10/13 10:42:51;;;;;;;;;;;21.10;67.00;;;;;;6318987;28;20274;-69
2023/10/13 10:45:52;;;;;;;;;;;21.10;66.80;;;;;;6317535;28;20263;-69
2023/10/13 10:49:02;;;;;;;;;;;21.10;67.40;;;;;;6325300;28;19912;-68
2023/10/13 10:52:04;;;;;;;;;;;21.10;67.40;;;;;;6319233;28;20375;-67
2023/10/13 10:55:08;;;;;;;;;;;21.10;67.10;;;;;;6318078;28;19912;-67
2023/10/13 10:58:28;;;;;;;;;;;21.10;67.50;;;;;;6325013;28;20037;-69
2023/10/13 11:01:38;;;;;;;;;;;21.10;67.20;;;;;;6316448;28;19936;-70
2023/10/13 11:04:50;;;;;;;;;;;21.10;67.50;;;;;;6318537;28;19974;-65
2023/10/13 11:07:51;;;;;;;;;;;21.20;67.70;;;;;;6313870;28;19914;-68
2023/10/13 11:10:51;;;;;;;;;;;21.20;67.80;;;;;;6324718;28;19908;-69
2023/10/13 11:13:54;;;;;;;;;;;21.10;68.00;;;;;;6317738;28;20011;-68
2023/10/13 11:16:59;;;;;;;;;;;21.10;68.00;;;;;;6322359;28;19914;-68
2023/10/13 11:20:15;;;;;;;;;;;21.10;67.70;;;;;;6319914;28;19964;-68
2023/10/13 11:23:16;;;;;;;;;;;21.10;67.80;;;;;;6323602;28;19908;-68
2023/10/13 11:26:18;;;;;;;;;;;21.00;67.70;;;;;;6324669;28;20373;-66
2023/10/13 11:29:19;;;;;;;;;;;21.00;67.90;;;;;;6322450;28;20705;-66
2023/10/13 11:32:20;;;;;;;;;;;21.00;68.00;;;;;;6317764;28;20450;-68
2023/10/13 11:35:21;;;;;;;;;;;21.00;68.00;;;;;;6314536;28;19912;-68
2023/10/13 11:38:28;;;;;;;;;;;21.00;67.90;;;;;;6315619;28;20297;-67
2023/10/13 11:41:35;;;;;;;;;;;21.00;68.70;;;;;;6317831;28;20292;-67
2023/10/13 11:44:43;;;;;;;;;;;21.00;67.80;;;;;;6316820;28;20365;-68
2023/10/13 11:47:59;;;;;;;;;;;21.00;67.60;;;;;;6316538;28;19936;-69
2023/10/13 11:51:00;;;;;;;;;;;21.00;67.90;;;;;;6320388;28;19908;-68
2023/10/13 11:54:01;;;;;;;;;;;21.00;67.80;;;;;;6318900;28;19916;-67
2023/10/13 11:57:02;;;;;;;;;;;21.00;67.90;;;;;;6320332;28;19911;-67
2023/10/13 12:00:26;;;;;;;;;;;21.00;67.80;;;;;;6321145;28;19927;-69
2023/10/13 12:12:58;;;;;;;;;;;21.00;67.60;;;;;;6317700;28;19908;-68
2023/10/13 12:16:08;;;;;;;;;;;21.00;67.60;;;;;;6320200;28;19924;-68
2023/10/13 12:19:11;;;;;;;;;;;21.00;67.70;;;;;;6323636;28;19918;-68
2023/10/13 12:22:16;;;;;;;;;;;21.00;67.70;;;;;;6321895;28;19916;-66
2023/10/13 12:25:34;;;;;;;;;;;21.00;67.80;;;;;;6321505;28;20367;-66
2023/10/13 12:28:40;;;;;;;;;;;21.00;67.80;;;;;;6314929;28;19958;-66
2023/10/13 12:31:50;;;;;;;;;;;21.00;67.80;;;;;;6316899;28;19918;-66
2023/10/13 12:38:16;;;;;;;;;;;21.00;67.70;;;;;;6323883;28;19977;-66
2023/10/13 12:54:38;;;;;;;;;;;21.00;67.80;;;;;;6327106;28;19982;-68
2023/10/13 12:57:43;;;;;;;;;;;21.00;67.90;;;;;;6315371;28;19908;-65
2023/10/13 13:00:48;;;;;;;;;;;21.00;67.90;;;;;;6328678;28;19912;-67
2023/10/13 13:03:55;;;;;;;;;;;21.00;67.90;;;;;;6327321;28;20363;-67
2023/10/13 13:06:56;;;;;;;;;;;20.90;67.80;;;;;;6326751;28;20379;-67
2023/10/13 13:09:59;;;;;;;;;;;20.90;67.70;;;;;;6325068;28;19978;-66
2023/10/13 13:13:02;;;;;;;;;;;21.00;67.90;;;;;;6323330;28;19966;-67
2023/10/13 13:16:03;;;;;;;;;;;21.00;67.70;;;;;;6324539;28;19998;-67
2023/10/13 13:19:10;;;;;;;;;;;21.00;67.80;;;;;;6322526;28;20371;-65
2023/10/13 13:22:13;;;;;;;;;;;21.00;68.00;;;;;;6321701;28;19912;-64
2023/10/13 13:25:17;;;;;;;;;;;21.00;67.90;;;;;;6322272;28;19908;-64
2023/10/13 13:28:18;;;;;;;;;;;21.00;67.70;;;;;;6322312;28;19908;-65
2023/10/13 13:31:26;;;;;;;;;;;21.00;67.70;;;;;;6322297;28;19908;-64
2023/10/13 13:34:26;;;;;;;;;;;21.00;68.00;;;;;;6321846;28;19912;-68
2023/10/13 13:37:27;;;;;;;;;;;21.00;68.50;;;;;;6328418;28;19919;-68
2023/10/13 13:40:34;;;;;;;;;;;21.00;67.60;;;;;;6333023;28;19919;-67
2023/10/13 13:43:38;;;;;;;;;;;21.00;67.70;;;;;;6317748;28;20375;-67
2023/10/13 13:46:42;;;;;;;;;;;21.00;67.80;;;;;;6333151;28;20008;-67
2023/10/13 13:49:50;;;;;;;;;;;21.00;68.00;;;;;;6321053;28;19955;-66
2023/10/13 13:52:52;;;;;;;;;;;21.00;68.00;;;;;;6320393;28;19927;-67
2023/10/13 13:55:53;;;;;;;;;;;21.00;68.00;;;;;;6320464;28;20329;-66
2023/10/13 13:58:55;;;;;;;;;;;21.00;67.90;;;;;;6320635;28;19912;-66
2023/10/13 14:01:59;;;;;;;;;;;21.00;68.00;;;;;;6318115;28;19919;-67
2023/10/13 14:05:02;;;;;;;;;;;21.00;67.90;;;;;;6320351;28;19995;-67
2023/10/13 14:08:11;;;;;;;;;;;21.00;68.00;;;;;;6319039;28;20007;-67
2023/10/13 14:14:13;;;;;;;;;;;21.00;67.90;;;;;;6319907;28;19947;-66
2023/10/13 14:17:14;;;;;;;;;;;21.00;67.70;;;;;;6326060;28;20371;-65
2023/10/13 14:20:26;;;;;;;;;;;21.00;67.60;;;;;;6319010;28;19919;-64
2023/10/13 14:23:27;;;;;;;;;;;21.10;68.10;;;;;;6317490;28;19995;-65
2023/10/13 14:26:28;;;;;;;;;;;21.00;68.00;;;;;;6325540;28;19908;-64
2023/10/13 14:29:28;;;;;;;;;;;21.00;67.80;;;;;;6319805;28;19998;-64
2023/10/13 14:32:29;;;;;;;;;;;21.00;67.70;;;;;;6310563;28;19915;-64
2023/10/13 14:35:30;;;;;;;;;;;21.00;67.90;;;;;;6318240;28;19908;-64
2023/10/13 14:38:30;;;;;;;;;;;21.00;68.00;;;;;;6319887;28;19923;-63
2023/10/13 14:41:31;;;;;;;;;;;21.00;68.10;;;;;;6318810;28;19916;-63
2023/10/13 14:44:32;;;;;;;;;;;21.00;68.10;;;;;;6319709;28;19991;-67
2023/10/13 14:47:33;;;;;;;;;;;21.00;68.10;;;;;;6324733;28;19999;-67
2023/10/13 14:50:34;;;;;;;;;;;21.00;68.10;;;;;;6319342;28;19935;-69
2023/10/13 14:53:34;;;;;;;;;;;21.00;68.20;;;;;;6317023;28;19908;-68
2023/10/13 14:56:35;;;;;;;;;;;21.00;68.10;;;;;;6319046;28;19908;-70
2023/10/13 14:59:38;;;;;;;;;;;21.00;68.10;;;;;;6318515;28;19915;-72
2023/10/13 15:02:42;;;;;;;;;;;21.00;68.10;;;;;;6314589;28;20007;-70
2023/10/13 15:05:43;;;;;;;;;;;21.00;68.10;;;;;;6318685;28;20383;-68
2023/10/13 15:08:45;;;;;;;;;;;21.00;68.10;;;;;;6321047;28;19908;-71
2023/10/13 15:11:47;;;;;;;;;;;21.00;68.10;;;;;;6320811;28;19915;-71
2023/10/13 15:14:48;;;;;;;;;;;21.00;68.20;;;;;;6319319;28;19908;-72
2023/10/13 15:17:50;;;;;;;;;;;21.00;68.10;;;;;;6319413;28;19920;-72
2023/10/13 15:20:50;;;;;;;;;;;21.00;68.10;;;;;;6320102;28;19915;-72
2023/10/13 15:23:51;;;;;;;;;;;21.00;68.20;;;;;;6320175;28;19916;-71
2023/10/13 15:26:57;;;;;;;;;;;21.00;68.10;;;;;;6320702;28;20019;-72
2023/10/13 15:29:59;;;;;;;;;;;21.00;68.10;;;;;;6320259;28;20057;-71
2023/10/13 15:33:00;;;;;;;;;;;21.00;68.20;;;;;;6333633;28;19976;-72
2023/10/13 15:36:01;;;;;;;;;;;20.90;68.00;;;;;;6331270;28;20338;-72
2023/10/13 15:39:07;;;;;;;;;;;21.00;68.10;;;;;;6319696;28;19920;-75
2023/10/13 15:42:09;;;;;;;;;;;21.00;68.10;;;;;;6341804;28;19916;-73
2023/10/13 15:45:16;;;;;;;;;;;21.00;68.40;;;;;;6342388;28;19908;-73
2023/10/13 15:48:17;;;;;;;;;;;21.00;68.20;;;;;;6342681;28;19912;-72
2023/10/13 15:51:19;;;;;;;;;;;21.00;68.10;;;;;;6325418;28;19960;-73
2023/10/13 15:54:20;;;;;;;;;;;21.00;68.30;;;;;;6325009;28;19914;-72
2023/10/13 15:57:23;;;;;;;;;;;21.00;68.10;;;;;;6323282;28;19911;-71
2023/10/13 16:00:24;;;;;;;;;;;21.00;68.10;;;;;;6337445;28;19912;-70
2023/10/13 16:03:27;;;;;;;;;;;21.00;68.10;;;;;;6322018;28;19950;-70
2023/10/13 16:06:29;;;;;;;;;;;21.00;68.20;;;;;;6325868;28;19912;-71
2023/10/13 16:09:33;;;;;;;;;;;21.00;68.30;;;;;;6325589;28;20353;-68
2023/10/13 16:12:34;;;;;;;;;;;21.00;68.30;;;;;;6337281;28;20049;-68
2023/10/13 16:15:40;;;;;;;;;;;21.00;68.30;;;;;;6319556;28;19908;-68
2023/10/13 16:18:43;;;;;;;;;;;21.00;68.30;;;;;;6313042;28;19919;-67
2023/10/13 16:21:45;;;;;;;;;;;21.00;68.20;;;;;;6332354;28;19939;-68
2023/10/13 16:24:47;;;;;;;;;;;21.00;68.20;;;;;;6322250;28;19912;-68
2023/10/13 16:27:49;;;;;;;;;;;21.00;68.20;;;;;;6318116;28;19916;-68
2023/10/13 16:30:53;;;;;;;;;;;21.00;68.00;;;;;;6320039;28;19912;-68
2023/10/13 16:33:54;;;;;;;;;;;21.00;68.20;;;;;;6322724;28;20311;-68
2023/10/13 16:36:55;;;;;;;;;;;21.00;68.20;;;;;;6324122;28;19908;-68
2023/10/13 16:40:04;;;;;;;;;;;21.00;68.30;;;;;;6323233;28;19950;-68
2023/10/13 16:43:07;;;;;;;;;;;21.00;68.10;;;;;;6327013;28;19915;-69
2023/10/13 16:46:11;;;;;;;;;;;21.00;68.10;;;;;;6325175;28;19912;-68
2023/10/13 16:49:12;;;;;;;;;;;21.00;68.00;;;;;;6319636;28;19912;-69
2023/10/13 16:52:12;;;;;;;;;;;21.00;68.00;;;;;;6318856;28;19912;-71
2023/10/13 16:55:14;;;;;;;;;;;21.00;68.10;;;;;;6324279;28;19948;-71
2023/10/13 16:58:15;;;;;;;;;;;21.00;68.10;;;;;;6319763;28;20443;-71
2023/10/13 17:01:17;;;;;;;;;;;21.00;68.10;;;;;;6313426;28;20143;-71
2023/10/13 17:04:19;;;;;;;;;;;21.00;68.10;;;;;;6315423;28;19912;-71
2023/10/13 17:07:20;;;;;;;;;;;21.00;68.40;;;;;;6318746;28;20011;-71
2023/10/13 17:10:21;;;;;;;;;;;21.00;68.20;;;;;;6316743;28;19908;-71
2023/10/13 17:13:21;;;;;;;;;;;21.00;68.30;;;;;;6322656;28;19914;-70
2023/10/13 17:16:22;;;;;;;;;;;21.00;68.20;;;;;;6317610;28;19912;-70
2023/10/13 17:19:23;;;;;;;;;;;21.00;68.30;;;;;;6317493;28;19923;-67
2023/10/13 17:22:24;;;;;;;;;;;21.00;68.20;;;;;;6318992;28;20302;-65
2023/10/13 17:25:25;;;;;;;;;;;20.90;68.10;;;;;;6318790;28;19998;-65
2023/10/13 17:28:25;;;;;;;;;;;20.90;68.10;;;;;;6334330;28;19914;-67
2023/10/13 17:31:26;;;;;;;;;;;21.00;68.20;;;;;;6316719;28;20385;-64
2023/10/13 17:34:28;;;;;;;;;;;21.00;68.30;;;;;;6317719;28;19913;-63
2023/10/13 17:37:29;;;;;;;;;;;20.90;68.30;;;;;;6324634;28;19908;-63
2023/10/13 17:40:30;;;;;;;;;;;21.00;68.40;;;;;;6316844;28;20476;-63
2023/10/13 17:43:34;;;;;;;;;;;20.90;68.30;;;;;;6322532;28;19912;-62
2023/10/13 17:46:37;;;;;;;;;;;20.90;68.40;;;;;;6324188;28;19957;-63
2023/10/13 17:49:39;;;;;;;;;;;20.90;68.40;;;;;;6318663;28;19916;-63
2023/10/13 17:52:41;;;;;;;;;;;20.90;68.30;;;;;;6321605;28;19986;-62
2023/10/13 17:55:41;;;;;;;;;;;20.90;68.30;;;;;;6317076;28;19947;-63
2023/10/13 17:58:43;;;;;;;;;;;20.90;68.40;;;;;;6315469;28;19912;-61
2023/10/13 18:01:48;;;;;;;;;;;20.90;68.40;;;;;;6317490;28;19921;-61
2023/10/13 18:04:49;;;;;;;;;;;20.90;68.40;;;;;;6324624;28;19908;-63
2023/10/13 18:07:51;;;;;;;;;;;20.90;68.40;;;;;;6324208;28;19915;-64
2023/10/13 18:10:52;;;;;;;;;;;20.90;68.40;;;;;;6319399;28;20003;-63
2023/10/13 18:13:52;;;;;;;;;;;20.90;68.40;;;;;;6321576;28;19912;-61
2023/10/13 18:16:54;;;;;;;;;;;20.90;68.40;;;;;;6313845;28;20350;-60
2023/10/13 18:19:57;;;;;;;;;;;20.90;68.40;;;;;;6323739;28;19908;-64
2023/10/13 18:22:59;;;;;;;;;;;20.90;68.40;;;;;;6317178;28;19912;-63
2023/10/13 18:26:02;;;;;;;;;;;20.90;68.40;;;;;;6319786;28;20342;-63
2023/10/13 18:29:04;;;;;;;;;;;20.90;68.40;;;;;;6315381;28;19908;-64
2023/10/13 18:32:05;;;;;;;;;;;20.90;68.40;;;;;;6319120;28;19908;-65
2023/10/13 18:35:08;;;;;;;;;;;20.90;68.40;;;;;;6320232;28;19915;-62
2023/10/13 18:38:10;;;;;;;;;;;20.90;68.40;;;;;;6319608;28;20396;-62
2023/10/13 18:41:18;;;;;;;;;;;20.90;68.40;;;;;;6319071;28;20294;-62
2023/10/13 18:44:22;;;;;;;;;;;20.90;68.40;;;;;;6319705;28;19915;-61
2023/10/13 18:47:23;;;;;;;;;;;20.90;68.30;;;;;;6319662;28;19908;-62
2023/10/13 18:50:24;;;;;;;;;;;20.90;68.30;;;;;;6319073;28;19947;-62
2023/10/13 18:53:24;;;;;;;;;;;20.90;68.30;;;;;;6319503;28;19909;-62
2023/10/13 18:56:25;;;;;;;;;;;20.90;68.30;;;;;;6319266;28;19912;-62
2023/10/13 18:59:27;;;;;;;;;;;20.90;68.10;;;;;;6311192;28;19915;-62
2023/10/13 19:02:28;;;;;;;;;;;20.90;68.30;;;;;;6319262;28;19916;-62
2023/10/13 19:05:29;;;;;;;;;;;20.90;68.10;;;;;;6319178;28;19908;-61
2023/10/13 19:08:31;;;;;;;;;;;20.90;68.10;;;;;;6318966;28;19908;-62
2023/10/13 19:11:35;;;;;;;;;;;20.90;68.10;;;;;;6317514;28;20550;-62
2023/10/13 19:14:38;;;;;;;;;;;20.90;68.10;;;;;;6312268;28;19919;-62
2023/10/13 19:17:40;;;;;;;;;;;20.90;68.00;;;;;;6318669;28;19972;-62
2023/10/13 19:20:40;;;;;;;;;;;20.90;68.10;;;;;;6316396;28;19916;-64
2023/10/13 19:23:41;;;;;;;;;;;20.90;68.10;;;;;;6312703;28;20390;-64
2023/10/13 19:26:43;;;;;;;;;;;20.90;68.20;;;;;;6318987;28;20417;-65
2023/10/13 19:29:44;;;;;;;;;;;20.90;68.10;;;;;;6317966;28;19916;-65
2023/10/13 19:32:44;;;;;;;;;;;20.90;68.30;;;;;;6318818;28;20017;-62
2023/10/13 19:35:45;;;;;;;;;;;20.90;68.30;;;;;;6318138;28;19912;-62
2023/10/13 19:38:48;;;;;;;;;;;20.90;68.30;;;;;;6316539;28;19942;-62
2023/10/13 19:41:48;;;;;;;;;;;20.90;68.10;;;;;;6314644;28;20007;-62
2023/10/13 19:44:49;;;;;;;;;;;20.90;68.20;;;;;;6312483;28;19915;-62
2023/10/13 19:47:49;;;;;;;;;;;20.90;68.10;;;;;;6317791;28;19908;-62
2023/10/13 19:50:51;;;;;;;;;;;20.90;68.20;;;;;;6317860;28;19917;-62
2023/10/13 19:53:52;;;;;;;;;;;20.90;68.00;;;;;;6318131;28;19908;-62
2023/10/13 19:56:53;;;;;;;;;;;20.90;68.10;;;;;;6317298;28;19912;-62
2023/10/13 19:59:54;;;;;;;;;;;20.90;68.00;;;;;;6308743;28;19934;-62
2023/10/13 20:02:55;;;;;;;;;;;20.90;68.00;;;;;;6316785;28;19938;-62
2023/10/13 20:05:55;;;;;;;;;;;20.90;68.00;;;;;;6317229;28;20318;-62
2023/10/13 20:09:12;;;;;;;;;;;20.90;68.20;;;;;;6317731;28;19908;-62
2023/10/13 20:12:15;;;;;;;;;;;20.90;68.00;;;;;;6317194;28;19908;-62
2023/10/13 20:15:16;;;;;;;;;;;20.90;68.20;;;;;;6316215;28;20403;-62
2023/10/13 20:18:17;;;;;;;;;;;20.90;68.10;;;;;;6317663;28;19914;-61
2023/10/13 20:21:18;;;;;;;;;;;20.90;68.20;;;;;;6316545;28;19916;-63
2023/10/13 20:24:19;;;;;;;;;;;20.90;68.20;;;;;;6317780;28;20394;-64
2023/10/13 20:27:19;;;;;;;;;;;20.90;68.20;;;;;;6315625;28;19935;-66
2023/10/13 20:30:21;;;;;;;;;;;20.90;68.10;;;;;;6317202;28;19908;-66
2023/10/13 20:33:23;;;;;;;;;;;20.90;68.20;;;;;;6317012;28;19919;-65
2023/10/13 20:36:26;;;;;;;;;;;20.90;68.30;;;;;;6313273;28;20454;-66
2023/10/13 20:39:30;;;;;;;;;;;20.90;68.20;;;;;;6309055;28;19965;-66
2023/10/13 20:42:30;;;;;;;;;;;20.90;68.10;;;;;;6316763;28;19923;-66
2023/10/13 20:45:35;;;;;;;;;;;20.90;68.20;;;;;;6317442;28;19908;-65